createdAt,value
2018-08-13T00:01:45.349Z,63.93
2018-08-13T00:04:14.880Z,64.44
2018-08-13T00:06:44.283Z,64.53
2018-08-13T00:09:16.424Z,64.86
2018-08-13T00:11:46.103Z,64.64
2018-08-13T00:14:15.992Z,64.29
2018-08-13T00:16:45.573Z,64.21
2018-08-13T00:19:15.149Z,63.86
2018-08-13T00:21:45.268Z,64.19
2018-08-13T00:24:14.990Z,64.77
2018-08-13T00:26:44.595Z,65.39
2018-08-13T00:29:14.746Z,65.56
2018-08-13T00:31:44.270Z,65.73
2018-08-13T00:34:13.743Z,66.04
2018-08-13T00:36:43.574Z,65.41
2018-08-13T00:39:14.193Z,65.71
2018-08-13T00:41:44.082Z,65.74
2018-08-13T00:44:13.521Z,66.19
2018-08-13T00:46:43.385Z,66.66
2018-08-13T00:49:13.150Z,67.12
2018-08-13T00:51:42.757Z,67.11
2018-08-13T00:54:12.297Z,66.99
2018-08-13T00:56:42.468Z,66.83
2018-08-13T00:59:12.613Z,67.09
2018-08-13T01:01:42.341Z,67.26
2018-08-13T01:04:12.222Z,67.03
2018-08-13T01:06:42.020Z,67.09
2018-08-13T01:09:12.164Z,67.63
2018-08-13T01:11:42.186Z,67.35
2018-08-13T01:14:11.965Z,67.52
2018-08-13T01:16:41.777Z,68.07
2018-08-13T01:19:11.606Z,68.01
2018-08-13T01:21:41.267Z,68.09
2018-08-13T01:24:11.016Z,67.60
2018-08-13T01:26:40.628Z,68.07
2018-08-13T01:29:10.302Z,68.11
2018-08-13T01:31:39.782Z,68.10
2018-08-13T01:34:09.641Z,67.53
2018-08-13T01:36:39.713Z,67.97
2018-08-13T01:39:11.041Z,68.00
2018-08-13T01:41:40.886Z,67.76
2018-08-13T01:44:10.483Z,67.87
2018-08-13T01:46:40.514Z,68.06
2018-08-13T01:49:10.232Z,67.99
2018-08-13T01:51:39.669Z,67.59
2018-08-13T01:54:09.356Z,67.96
2018-08-13T01:56:39.173Z,68.16
2018-08-13T01:59:08.845Z,68.18
2018-08-13T02:01:38.440Z,68.17
2018-08-13T02:04:08.283Z,67.98
2018-08-13T02:06:37.965Z,67.56
2018-08-13T02:09:09.832Z,67.63
2018-08-13T02:11:39.630Z,67.97
2018-08-13T02:14:09.347Z,68.18
2018-08-13T02:16:39.373Z,67.78
2018-08-13T02:19:09.253Z,68.09
2018-08-13T02:21:38.803Z,68.32
2018-08-13T02:24:08.846Z,67.96
2018-08-13T02:26:38.424Z,68.47
2018-08-13T02:29:07.945Z,68.03
2018-08-13T02:31:37.971Z,68.71
2018-08-13T02:34:07.663Z,68.38
2018-08-13T02:36:37.524Z,68.51
2018-08-13T02:39:09.970Z,68.37
2018-08-13T02:41:39.943Z,68.57
2018-08-13T02:44:09.522Z,68.19
2018-08-13T02:46:39.897Z,68.73
2018-08-13T02:49:09.525Z,68.47
2018-08-13T02:51:39.119Z,68.13
2018-08-13T02:54:09.527Z,68.49
2018-08-13T02:59:31.728Z,68.73
2018-08-13T03:02:00.798Z,68.79
2018-08-13T03:04:30.273Z,68.88
2018-08-13T03:06:59.929Z,68.75
2018-08-13T03:09:29.090Z,68.52
2018-08-13T03:11:58.816Z,68.82
2018-08-13T03:14:29.210Z,68.67
2018-08-13T03:16:58.508Z,68.74
2018-08-13T03:19:27.720Z,68.98
2018-08-13T03:21:57.053Z,69.24
2018-08-13T03:24:26.476Z,69.39
2018-08-13T03:26:55.885Z,69.69
2018-08-13T03:29:25.529Z,69.63
2018-08-13T03:31:54.682Z,69.65
2018-08-13T03:34:23.786Z,69.44
2018-08-13T03:36:53.366Z,69.81
2018-08-13T03:39:23.238Z,69.95
2018-08-13T03:41:53.344Z,70.04
2018-08-13T03:44:22.651Z,69.87
2018-08-13T03:46:52.271Z,70.23
2018-08-13T03:49:21.622Z,70.19
2018-08-13T03:51:51.085Z,70.21
2018-08-13T03:54:20.493Z,70.58
2018-08-13T03:56:49.811Z,70.85
2018-08-13T03:59:20.246Z,71.11
2018-08-13T04:01:51.229Z,70.82
2018-08-13T04:04:21.632Z,70.75
2018-08-13T04:06:51.950Z,71.23
2018-08-13T04:09:21.901Z,71.39
2018-08-13T04:11:52.165Z,71.36
2018-08-13T04:14:22.802Z,71.41
2018-08-13T04:17:02.039Z,71.62
2018-08-13T04:19:34.096Z,71.64
2018-08-13T04:22:04.118Z,71.66
2018-08-13T04:24:34.591Z,71.76
2018-08-13T04:27:04.763Z,71.49
2018-08-13T04:29:34.341Z,71.28
2018-08-13T04:32:05.208Z,71.89
2018-08-13T04:34:34.609Z,71.88
2018-08-13T04:37:03.748Z,72.00
2018-08-13T04:39:33.357Z,71.66
2018-08-13T04:42:03.002Z,71.75
2018-08-13T04:44:32.124Z,72.05
2018-08-13T04:47:01.788Z,71.98
2018-08-13T04:49:30.894Z,71.63
2018-08-13T04:52:00.031Z,71.60
2018-08-13T04:54:30.289Z,71.58
2018-08-13T04:56:59.994Z,71.44
2018-08-13T04:59:29.398Z,71.77
2018-08-13T05:01:58.855Z,71.52
2018-08-13T05:04:28.120Z,71.36
2018-08-13T05:06:57.284Z,71.14
2018-08-13T05:09:26.799Z,71.10
2018-08-13T05:11:56.366Z,70.90
2018-08-13T05:14:25.758Z,70.82
2018-08-13T05:16:55.261Z,70.49
2018-08-13T05:19:24.359Z,70.36
2018-08-13T05:21:53.569Z,70.18
2018-08-13T05:24:23.263Z,70.16
2018-08-13T05:26:52.495Z,70.44
2018-08-13T05:29:21.617Z,70.17
2018-08-13T05:31:51.016Z,70.10
2018-08-13T05:34:20.873Z,69.74
2018-08-13T05:36:50.429Z,69.17
2018-08-13T05:39:20.037Z,69.05
2018-08-13T05:41:49.494Z,68.77
2018-08-13T05:44:18.704Z,68.85
2018-08-13T05:46:48.203Z,68.71
2018-08-13T05:49:17.656Z,68.04
2018-08-13T05:51:47.007Z,67.93
2018-08-13T05:54:16.255Z,67.49
2018-08-13T05:56:45.774Z,67.17
2018-08-13T05:59:14.943Z,66.96
2018-08-13T06:01:44.407Z,66.50
2018-08-13T06:04:13.622Z,66.65
2018-08-13T06:06:42.813Z,65.89
2018-08-13T06:09:13.541Z,65.34
2018-08-13T06:11:42.781Z,65.27
2018-08-13T06:14:11.961Z,63.93
2018-08-13T06:16:41.322Z,63.40
2018-08-13T06:19:10.329Z,61.96
2018-08-13T06:21:39.447Z,61.14
2018-08-13T06:24:08.853Z,60.38
2018-08-13T06:26:38.127Z,59.37
2018-08-13T06:29:07.239Z,59.48
2018-08-13T06:31:36.500Z,59.54
2018-08-13T06:34:05.842Z,59.68
2018-08-13T06:36:35.089Z,58.71
2018-08-13T06:39:05.603Z,58.78
2018-08-13T06:41:34.744Z,58.20
2018-08-13T06:44:03.907Z,57.45
2018-08-13T06:46:33.241Z,57.86
2018-08-13T06:49:02.506Z,58.33
2018-08-13T06:51:31.817Z,58.73
2018-08-13T06:54:01.017Z,58.43
2018-08-13T06:56:30.160Z,58.39
2018-08-13T06:58:59.340Z,58.38
2018-08-13T07:01:28.762Z,58.52
2018-08-13T07:03:57.989Z,58.85
2018-08-13T07:06:27.187Z,57.89
2018-08-13T07:08:57.022Z,58.08
2018-08-13T07:11:26.221Z,58.13
2018-08-13T07:13:55.396Z,57.79
2018-08-13T07:16:24.717Z,57.05
2018-08-13T07:18:53.825Z,57.14
2018-08-13T07:21:23.022Z,56.89
2018-08-13T07:23:52.494Z,55.88
2018-08-13T07:26:21.544Z,55.89
2018-08-13T07:28:50.908Z,55.19
2018-08-13T07:31:20.465Z,55.32
2018-08-13T07:33:49.997Z,55.16
2018-08-13T07:36:19.189Z,54.23
2018-08-13T07:38:48.655Z,54.80
2018-08-13T07:41:18.026Z,54.44
2018-08-13T07:43:47.529Z,53.91
2018-08-13T07:46:17.148Z,53.18
2018-08-13T07:48:46.307Z,51.89
2018-08-13T07:51:15.662Z,51.99
2018-08-13T07:53:45.344Z,52.68
2018-08-13T07:56:14.568Z,51.25
2018-08-13T07:58:43.815Z,50.63
2018-08-13T08:01:13.378Z,50.54
2018-08-13T08:03:42.622Z,50.66
2018-08-13T08:06:11.732Z,50.59
2018-08-13T08:08:41.226Z,50.55
2018-08-13T08:11:10.385Z,50.14
2018-08-13T08:13:39.444Z,49.74
2018-08-13T08:16:08.847Z,47.48
2018-08-13T08:18:38.077Z,44.52
2018-08-13T08:21:07.252Z,43.76
2018-08-13T08:23:36.941Z,44.79
2018-08-13T08:26:06.225Z,43.49
2018-08-13T08:28:35.437Z,44.50
2018-08-13T08:31:05.229Z,44.86
2018-08-13T08:33:34.372Z,45.23
2018-08-13T08:36:03.610Z,45.39
2018-08-13T08:38:32.872Z,45.77
2018-08-13T08:41:02.321Z,45.15
2018-08-13T08:43:31.386Z,45.68
2018-08-13T08:46:01.024Z,44.88
2018-08-13T08:48:30.048Z,44.43
2018-08-13T08:50:59.415Z,44.15
2018-08-13T08:53:28.840Z,44.32
2018-08-13T08:55:58.536Z,44.31
2018-08-13T08:58:27.680Z,44.49
2018-08-13T09:00:56.785Z,44.28
2018-08-13T09:03:25.977Z,43.69
2018-08-13T09:05:55.144Z,43.23
2018-08-13T09:08:24.589Z,42.66
2018-08-13T09:10:53.907Z,43.28
2018-08-13T09:13:23.068Z,43.19
2018-08-13T09:15:52.134Z,42.63
2018-08-13T09:18:32.250Z,42.76
2018-08-13T09:21:12.681Z,42.82
2018-08-13T09:23:52.580Z,42.01
2018-08-13T09:26:32.804Z,41.27
2018-08-13T09:29:12.950Z,40.87
2018-08-13T09:32:24.485Z,41.61
2018-08-13T09:35:13.341Z,40.97
2018-08-13T09:37:42.713Z,41.19
2018-08-13T09:40:11.942Z,41.53
2018-08-13T09:42:41.267Z,40.00
2018-08-13T09:45:10.538Z,39.90
2018-08-13T09:47:40.228Z,40.01
2018-08-13T09:50:12.517Z,40.17
2018-08-13T09:52:42.469Z,39.15
2018-08-13T09:55:11.882Z,40.19
2018-08-13T09:57:41.467Z,39.24
2018-08-13T10:00:16.956Z,38.85
2018-08-13T10:02:47.188Z,38.87
2018-08-13T10:05:16.544Z,39.28
2018-08-13T10:07:46.009Z,39.02
2018-08-13T10:10:16.412Z,39.44
2018-08-13T10:12:46.244Z,39.01
2018-08-13T10:15:15.605Z,38.19
2018-08-13T10:17:45.137Z,38.12
2018-08-13T10:20:20.078Z,37.80
2018-08-13T10:22:49.913Z,37.90
2018-08-13T10:25:19.376Z,38.02
2018-08-13T10:27:49.635Z,37.87
2018-08-13T10:30:19.260Z,37.05
2018-08-13T10:32:48.662Z,37.80
2018-08-13T10:35:17.851Z,36.81
2018-08-13T10:37:47.277Z,37.17
2018-08-13T10:40:18.819Z,36.99
2018-08-13T10:42:48.766Z,37.41
2018-08-13T10:45:18.440Z,38.01
2018-08-13T10:47:47.711Z,37.53
2018-08-13T10:50:17.062Z,37.46
2018-08-13T10:52:46.497Z,36.98
2018-08-13T10:55:16.207Z,37.63
2018-08-13T10:57:46.004Z,36.83
2018-08-13T11:00:16.597Z,36.54
2018-08-13T11:02:46.091Z,36.95
2018-08-13T11:05:15.947Z,37.40
2018-08-13T11:07:45.150Z,37.59
2018-08-13T11:10:15.282Z,37.53
2018-08-13T11:12:44.680Z,37.17
2018-08-13T11:15:17.582Z,37.38
2018-08-13T11:17:47.114Z,37.32
2018-08-13T11:20:16.611Z,36.69
2018-08-13T11:22:45.969Z,36.93
2018-08-13T11:25:16.641Z,36.60
2018-08-13T11:27:46.037Z,36.17
2018-08-13T11:30:16.479Z,36.33
2018-08-13T11:32:46.014Z,35.85
2018-08-13T11:35:16.090Z,36.02
2018-08-13T11:37:45.294Z,35.92
2018-08-13T11:40:15.619Z,36.28
2018-08-13T11:42:45.047Z,36.67
2018-08-13T11:45:14.382Z,36.30
2018-08-13T11:47:43.513Z,36.32
2018-08-13T11:50:19.462Z,36.29
2018-08-13T11:52:50.023Z,36.02
2018-08-13T11:55:20.091Z,35.60
2018-08-13T11:57:50.569Z,35.63
2018-08-13T12:00:20.044Z,35.24
2018-08-13T12:02:49.988Z,34.95
2018-08-13T12:05:19.428Z,35.18
2018-08-13T12:07:48.614Z,34.64
2018-08-13T12:10:17.950Z,34.51
2018-08-13T12:12:47.434Z,34.63
2018-08-13T12:15:16.862Z,34.39
2018-08-13T12:17:46.424Z,35.07
2018-08-13T12:20:18.819Z,35.94
2018-08-13T12:22:48.590Z,34.37
2018-08-13T12:25:24.024Z,34.66
2018-08-13T12:27:53.473Z,34.03
2018-08-13T12:30:22.954Z,34.59
2018-08-13T12:32:52.482Z,33.57
2018-08-13T12:35:21.659Z,33.22
2018-08-13T12:37:51.295Z,32.54
2018-08-13T12:40:21.165Z,32.98
2018-08-13T12:42:50.555Z,33.00
2018-08-13T12:45:20.035Z,33.13
2018-08-13T12:47:49.439Z,33.32
2018-08-13T12:50:20.144Z,33.59
2018-08-13T12:52:50.392Z,32.89
2018-08-13T12:55:20.198Z,32.35
2018-08-13T12:57:50.372Z,33.17
2018-08-13T13:00:20.176Z,33.42
2018-08-13T13:02:51.128Z,32.75
2018-08-13T13:05:20.539Z,31.64
2018-08-13T13:07:49.875Z,31.34
2018-08-13T13:10:19.555Z,30.85
2018-08-13T13:12:48.904Z,30.69
2018-08-13T13:15:19.674Z,30.76
2018-08-13T13:17:49.486Z,31.06
2018-08-13T13:20:20.447Z,30.72
2018-08-13T13:22:50.565Z,31.12
2018-08-13T13:25:20.206Z,31.22
2018-08-13T13:27:49.501Z,31.12
2018-08-13T13:30:19.145Z,30.46
2018-08-13T13:32:48.515Z,29.75
2018-08-13T13:35:18.638Z,29.72
2018-08-13T13:37:48.061Z,29.88
2018-08-13T13:40:18.220Z,30.86
2018-08-13T13:42:47.362Z,29.32
2018-08-13T13:45:18.289Z,29.04
2018-08-13T13:47:47.771Z,29.55
2018-08-13T13:50:18.529Z,29.25
2018-08-13T13:52:48.079Z,29.29
2018-08-13T13:55:17.645Z,29.05
2018-08-13T13:57:47.079Z,29.78
2018-08-13T14:00:20.589Z,30.34
2018-08-13T14:02:51.093Z,34.46
2018-08-13T14:05:21.302Z,35.48
2018-08-13T14:07:50.697Z,36.54
2018-08-13T14:10:21.506Z,36.81
2018-08-13T14:12:50.814Z,37.23
2018-08-13T14:15:21.573Z,38.04
2018-08-13T14:17:51.829Z,38.67
2018-08-13T14:20:22.267Z,38.64
2018-08-13T14:22:51.506Z,39.70
2018-08-13T14:25:21.179Z,40.60
2018-08-13T14:27:50.543Z,40.50
2018-08-13T14:30:22.135Z,41.75
2018-08-13T14:32:51.605Z,42.57
2018-08-13T14:35:21.845Z,42.63
2018-08-13T14:37:51.390Z,42.66
2018-08-13T14:40:20.934Z,42.92
2018-08-13T14:42:50.366Z,42.09
2018-08-13T14:45:19.979Z,42.49
2018-08-13T14:47:51.130Z,42.52
2018-08-13T14:50:21.455Z,42.33
2018-08-13T14:52:51.257Z,42.38
2018-08-13T14:55:23.135Z,42.47
2018-08-13T14:57:52.675Z,43.10
2018-08-13T15:00:31.367Z,43.48
2018-08-13T15:03:00.602Z,43.56
2018-08-13T15:05:30.289Z,43.01
2018-08-13T15:07:59.447Z,42.70
2018-08-13T15:10:28.870Z,42.97
2018-08-13T15:12:58.353Z,42.44
2018-08-13T15:15:27.454Z,42.93
2018-08-13T15:17:56.800Z,42.72
2018-08-13T15:20:28.243Z,43.12
2018-08-13T15:22:57.570Z,43.03
2018-08-13T15:25:26.997Z,43.08
2018-08-13T15:27:56.633Z,43.41
2018-08-13T15:30:26.367Z,42.87
2018-08-13T15:32:55.679Z,43.10
2018-08-13T15:35:25.479Z,42.57
2018-08-13T15:37:54.869Z,42.64
2018-08-13T15:40:24.157Z,41.89
2018-08-13T15:42:53.503Z,42.21
2018-08-13T15:45:23.974Z,42.24
2018-08-13T15:47:53.307Z,42.87
2018-08-13T15:50:23.438Z,43.24
2018-08-13T15:52:52.805Z,42.86
2018-08-13T15:55:22.496Z,42.91
2018-08-13T15:57:51.990Z,43.52
2018-08-13T16:00:23.793Z,43.60
2018-08-13T16:02:53.475Z,43.07
2018-08-13T16:05:23.376Z,43.33
2018-08-13T16:07:53.326Z,43.46
2018-08-13T16:10:22.811Z,42.91
2018-08-13T16:12:52.112Z,43.64
2018-08-13T16:15:21.452Z,43.72
2018-08-13T16:17:51.117Z,44.48
2018-08-13T16:20:20.975Z,43.99
2018-08-13T16:22:50.710Z,44.61
2018-08-13T16:25:20.243Z,44.54
2018-08-13T16:27:49.695Z,44.60
2018-08-13T16:30:22.847Z,44.66
2018-08-13T16:32:52.109Z,44.75
2018-08-13T16:35:22.511Z,44.47
2018-08-13T16:37:52.649Z,45.24
2018-08-13T16:40:22.435Z,45.78
2018-08-13T16:42:52.549Z,46.00
2018-08-13T16:45:22.835Z,46.25
2018-08-13T16:47:52.762Z,46.57
2018-08-13T16:50:28.721Z,46.81
2018-08-13T16:52:58.745Z,47.71
2018-08-13T16:55:29.226Z,47.83
2018-08-13T16:57:59.936Z,48.35
2018-08-13T17:00:30.474Z,48.29
2018-08-13T17:03:00.366Z,48.69
2018-08-13T17:05:31.094Z,48.94
2018-08-13T17:08:00.555Z,48.84
2018-08-13T17:10:30.658Z,49.07
2018-08-13T17:13:00.681Z,49.39
2018-08-13T17:15:31.629Z,49.59
2018-08-13T17:18:02.573Z,49.82
2018-08-13T17:20:34.043Z,50.57
2018-08-13T17:23:04.251Z,51.18
2018-08-13T17:25:33.615Z,51.30
2018-08-13T17:28:04.223Z,50.95
2018-08-13T17:30:34.114Z,52.24
2018-08-13T17:33:03.903Z,52.76
2018-08-13T17:35:34.716Z,53.19
2018-08-13T17:38:06.776Z,53.13
2018-08-13T17:40:36.557Z,53.32
2018-08-13T17:43:06.958Z,53.93
2018-08-13T17:45:36.115Z,54.41
2018-08-13T17:48:06.155Z,54.97
2018-08-13T17:50:35.497Z,55.73
2018-08-13T17:53:05.329Z,56.02
2018-08-13T17:55:34.517Z,56.84
2018-08-13T17:58:04.295Z,56.31
2018-08-13T18:00:33.712Z,57.41
2018-08-13T18:03:03.125Z,57.69
2018-08-13T18:05:33.143Z,57.98
2018-08-13T18:08:03.320Z,58.54
2018-08-13T18:10:34.607Z,58.74
2018-08-13T18:13:06.638Z,58.89
2018-08-13T18:15:36.271Z,59.65
2018-08-13T18:18:06.766Z,59.59
2018-08-13T18:20:36.054Z,59.88
2018-08-13T18:23:05.923Z,60.42
2018-08-13T18:25:35.556Z,60.56
2018-08-13T18:28:05.078Z,61.54
2018-08-13T18:30:34.450Z,61.62
2018-08-13T18:33:03.615Z,61.58
2018-08-13T18:35:33.175Z,61.61
2018-08-13T18:38:02.995Z,61.98
2018-08-13T18:40:33.814Z,62.31
2018-08-13T18:43:03.152Z,62.57
2018-08-13T18:45:32.796Z,64.22
2018-08-13T18:48:02.506Z,63.84
2018-08-13T18:50:32.012Z,63.89
2018-08-13T18:53:01.777Z,63.84
2018-08-13T18:55:31.238Z,64.75
2018-08-13T18:58:00.396Z,64.46
2018-08-13T19:00:31.084Z,64.60
2018-08-13T19:03:01.985Z,64.55
2018-08-13T19:05:31.918Z,64.08
2018-08-13T19:08:01.728Z,64.24
2018-08-13T19:10:31.324Z,64.22
2018-08-13T19:13:01.126Z,64.08
2018-08-13T19:15:30.663Z,64.50
2018-08-13T19:18:00.072Z,64.87
2018-08-13T19:20:29.612Z,64.77
2018-08-13T19:22:58.850Z,64.16
2018-08-13T19:25:29.047Z,63.84
2018-08-13T19:27:58.279Z,63.68
2018-08-13T19:30:27.951Z,63.57
2018-08-13T19:32:57.700Z,63.34
2018-08-13T19:35:27.332Z,62.93
2018-08-13T19:37:56.649Z,63.13
2018-08-13T19:40:26.781Z,63.43
2018-08-13T19:42:56.246Z,63.33
2018-08-13T19:45:25.387Z,63.31
2018-08-13T19:47:54.789Z,63.16
2018-08-13T19:50:24.056Z,63.30
2018-08-13T19:52:53.573Z,62.78
2018-08-13T19:55:23.689Z,62.10
2018-08-13T19:57:53.014Z,62.12
2018-08-13T20:00:25.116Z,61.94
2018-08-13T20:02:54.736Z,61.53
2018-08-13T20:05:25.170Z,61.22
2018-08-13T20:07:55.139Z,61.62
2018-08-13T20:10:24.405Z,61.24
2018-08-13T20:12:53.626Z,61.35
2018-08-13T20:15:23.004Z,61.17
2018-08-13T20:17:52.205Z,61.01
2018-08-13T20:20:22.772Z,61.28
2018-08-13T20:22:52.421Z,60.73
2018-08-13T20:25:22.330Z,60.49
2018-08-13T20:27:51.879Z,60.90
2018-08-13T20:30:22.957Z,60.92
2018-08-13T20:32:53.177Z,60.59
2018-08-13T20:35:22.561Z,60.62
2018-08-13T20:37:52.009Z,60.45
2018-08-13T20:40:22.424Z,59.93
2018-08-13T20:42:51.995Z,60.08
2018-08-13T20:45:22.725Z,59.99
2018-08-13T20:47:52.383Z,59.77
2018-08-13T20:50:24.423Z,59.36
2018-08-13T20:52:54.591Z,59.20
2018-08-13T20:55:30.753Z,58.72
2018-08-13T20:58:00.381Z,58.59
2018-08-13T21:00:31.386Z,58.94
2018-08-13T21:03:00.745Z,58.71
2018-08-13T21:05:30.544Z,58.94
2018-08-13T21:08:00.107Z,58.52
2018-08-13T21:10:30.150Z,59.03
2018-08-13T21:13:00.310Z,59.38
2018-08-13T21:15:29.665Z,60.09
2018-08-13T21:17:58.764Z,61.01
2018-08-13T21:20:29.140Z,61.87
2018-08-13T21:22:58.557Z,62.47
2018-08-13T21:25:28.527Z,62.40
2018-08-13T21:27:57.953Z,62.93
2018-08-13T21:30:27.396Z,63.55
2018-08-13T21:32:56.728Z,63.37
2018-08-13T21:35:26.676Z,64.00
2018-08-13T21:37:55.824Z,64.39
2018-08-13T21:40:25.444Z,65.31
2018-08-13T21:42:54.884Z,66.12
2018-08-13T21:45:24.485Z,66.35
2018-08-13T21:47:54.249Z,67.83
2018-08-13T21:50:24.661Z,68.41
2018-08-13T21:52:54.124Z,68.57
2018-08-13T21:55:23.912Z,69.41
2018-08-13T21:57:53.196Z,69.43
2018-08-13T22:00:28.160Z,70.26
2018-08-13T22:03:01.816Z,70.24
2018-08-13T22:05:31.538Z,70.39
2018-08-13T22:08:01.047Z,70.65
2018-08-13T22:10:30.643Z,70.46
2018-08-13T22:13:00.468Z,71.21
2018-08-13T22:15:33.699Z,71.57
2018-08-13T22:18:05.240Z,71.95
2018-08-13T22:20:35.785Z,71.67
2018-08-13T22:23:06.630Z,71.94
2018-08-13T22:25:38.863Z,72.24
2018-08-13T22:28:09.777Z,72.07
2018-08-13T22:30:39.280Z,72.47
2018-08-13T22:33:10.022Z,72.08
2018-08-13T22:35:39.579Z,72.47
2018-08-13T22:38:09.514Z,72.19
2018-08-13T22:40:39.392Z,73.17
2018-08-13T22:43:09.407Z,73.38
2018-08-13T22:45:38.820Z,73.29
2018-08-13T22:48:08.209Z,73.51
2018-08-13T22:50:37.851Z,73.62
2018-08-13T22:53:07.272Z,74.43
2018-08-13T22:55:36.767Z,74.70
2018-08-13T22:58:06.473Z,74.54
2018-08-13T23:00:36.197Z,74.63
2018-08-13T23:03:06.248Z,75.16
2018-08-13T23:05:36.695Z,74.81
2018-08-13T23:08:06.212Z,74.59
2018-08-13T23:10:35.660Z,74.87
2018-08-13T23:13:05.521Z,75.25
2018-08-13T23:15:35.075Z,75.77
2018-08-13T23:18:04.448Z,75.68
2018-08-13T23:20:34.104Z,76.41
2018-08-13T23:23:04.244Z,76.13
2018-08-13T23:25:34.844Z,76.09
2018-08-13T23:28:05.313Z,76.78
2018-08-13T23:30:34.821Z,76.58
2018-08-13T23:33:04.127Z,75.85
2018-08-13T23:35:33.621Z,76.18
2018-08-13T23:38:02.904Z,76.00
2018-08-13T23:40:32.337Z,75.22
2018-08-13T23:43:01.971Z,76.00
2018-08-13T23:45:32.756Z,76.17
2018-08-13T23:48:02.333Z,75.58
2018-08-13T23:50:31.622Z,76.00
2018-08-13T23:55:13.035Z,76.12
2018-08-13T23:57:42.405Z,76.77
